createdAt,value
2018-02-06T00:01:02.540Z,42.63
2018-02-06T00:03:29.999Z,45.33
2018-02-06T00:05:57.556Z,39.80
2018-02-06T00:08:25.116Z,39.43
2018-02-06T00:10:52.544Z,36.03
2018-02-06T00:13:20.132Z,35.20
2018-02-06T00:15:47.659Z,40.03
2018-02-06T00:18:15.108Z,39.67
2018-02-06T00:20:42.606Z,38.23
2018-02-06T00:23:11.020Z,42.90
2018-02-06T00:25:38.646Z,40.60
2018-02-06T00:28:06.206Z,37.10
2018-02-06T00:30:33.765Z,39.10
2018-02-06T00:33:01.324Z,40.83
2018-02-06T00:35:28.884Z,40.70
2018-02-06T00:37:56.442Z,37.60
2018-02-06T00:40:24.003Z,40.97
2018-02-06T00:42:51.495Z,42.87
2018-02-06T00:45:19.122Z,40.67
2018-02-06T00:47:47.091Z,36.13
2018-02-06T00:50:14.651Z,44.10
2018-02-06T00:52:42.209Z,50.23
2018-02-06T00:55:09.703Z,45.93
2018-02-06T00:57:37.228Z,46.23
2018-02-06T01:00:04.824Z,45.97
2018-02-06T01:02:32.345Z,52.27
2018-02-06T01:04:59.904Z,44.43
2018-02-06T01:07:27.463Z,48.77
2018-02-06T01:09:54.880Z,47.63
2018-02-06T01:12:22.480Z,44.40
2018-02-06T01:14:50.041Z,55.60
2018-02-06T01:17:17.599Z,43.63
2018-02-06T01:19:45.158Z,44.40
2018-02-06T01:22:13.025Z,42.67
2018-02-06T01:24:40.584Z,42.80
2018-02-06T01:27:08.081Z,45.23
2018-02-06T01:29:35.717Z,42.23
2018-02-06T01:32:03.263Z,40.43
2018-02-06T01:34:30.822Z,35.17
2018-02-06T01:36:58.387Z,37.87
2018-02-06T01:39:25.940Z,36.00
2018-02-06T01:41:53.500Z,29.67
2018-02-06T01:44:21.162Z,37.57
2018-02-06T01:46:48.721Z,34.17
2018-02-06T01:49:16.281Z,29.70
2018-02-06T01:51:43.839Z,33.10
2018-02-06T01:54:11.298Z,33.63
2018-02-06T01:56:38.858Z,33.33
2018-02-06T01:59:06.416Z,35.73
2018-02-06T02:01:33.874Z,33.33
2018-02-06T02:04:01.380Z,36.70
2018-02-06T02:06:28.993Z,38.23
2018-02-06T02:08:56.551Z,35.00
2018-02-06T02:11:24.111Z,35.77
2018-02-06T02:13:51.516Z,39.53
2018-02-06T02:16:18.915Z,32.40
2018-02-06T02:18:46.427Z,40.63
2018-02-06T02:21:13.940Z,35.03
2018-02-06T02:23:41.499Z,34.60
2018-02-06T02:26:09.058Z,32.93
2018-02-06T02:28:36.552Z,41.80
2018-02-06T02:31:04.075Z,32.13
2018-02-06T02:33:31.568Z,36.77
2018-02-06T02:35:59.024Z,34.20
2018-02-06T02:38:26.549Z,38.37
2018-02-06T02:40:54.107Z,33.97
2018-02-06T04:38:53.024Z,32.50
2018-02-06T04:41:20.526Z,95.43
2018-02-06T04:43:48.085Z,51.97
2018-02-06T04:46:15.644Z,106.70
2018-02-06T04:48:43.203Z,140.83
2018-02-06T04:51:10.763Z,104.97
2018-02-06T04:53:38.262Z,117.70
2018-02-06T04:56:05.779Z,91.33
2018-02-06T04:58:33.237Z,54.60
2018-02-06T05:01:00.795Z,79.43
2018-02-06T05:03:28.356Z,59.07
2018-02-06T05:05:55.916Z,46.00
2018-02-06T05:08:23.416Z,52.50
2018-02-06T05:10:51.036Z,56.57
2018-02-06T05:13:18.696Z,60.57
2018-02-06T05:15:46.191Z,51.57
2018-02-06T05:18:13.712Z,47.80
2018-02-06T05:20:41.272Z,41.90
2018-02-06T05:23:08.794Z,39.03
2018-02-06T05:25:36.323Z,35.90
2018-02-06T05:28:03.847Z,39.60
2018-02-06T05:30:31.407Z,41.70
2018-02-06T05:32:58.967Z,35.77
2018-02-06T05:35:26.424Z,37.30
2018-02-06T05:37:53.920Z,40.70
2018-02-06T05:40:21.748Z,37.27
2018-02-06T05:42:49.146Z,41.47
2018-02-06T05:45:16.662Z,50.13
2018-02-06T05:47:44.220Z,54.43
2018-02-06T05:50:11.779Z,40.27
2018-02-06T05:52:39.341Z,40.53
2018-02-06T05:55:06.834Z,45.57
2018-02-06T05:57:34.356Z,36.37
2018-02-06T06:00:01.919Z,38.10
2018-02-06T06:02:29.475Z,39.03
2018-02-06T06:04:57.036Z,40.47
2018-02-06T06:07:24.593Z,41.30
2018-02-06T06:09:52.155Z,40.13
2018-02-06T06:12:19.713Z,40.77
2018-02-06T06:14:47.272Z,41.03
2018-02-06T06:17:14.832Z,39.00
2018-02-06T06:19:42.391Z,35.67
2018-02-06T06:22:09.847Z,40.97
2018-02-06T06:24:37.408Z,33.33
2018-02-06T06:27:04.966Z,37.90
2018-02-06T06:29:32.460Z,36.00
2018-02-06T06:31:59.983Z,36.40
2018-02-06T06:34:27.543Z,37.00
2018-02-06T06:36:55.103Z,36.63
2018-02-06T06:39:22.704Z,38.77
2018-02-06T06:41:50.220Z,35.80
2018-02-06T06:44:17.781Z,40.23
2018-02-06T06:46:45.238Z,40.60
2018-02-06T06:49:12.796Z,34.77
2018-02-06T06:51:40.293Z,38.63
2018-02-06T06:54:07.813Z,44.23
2018-02-06T06:56:35.304Z,34.70
2018-02-06T06:59:02.766Z,33.03
2018-02-06T07:01:30.336Z,45.10
2018-02-06T07:03:57.846Z,38.60
2018-02-06T07:06:25.340Z,42.20
2018-02-06T07:08:52.795Z,35.83
2018-02-06T07:11:20.320Z,39.10
2018-02-06T07:13:47.879Z,34.37
2018-02-06T07:16:15.439Z,37.23
2018-02-06T07:18:42.933Z,43.90
2018-02-06T07:21:10.352Z,36.13
2018-02-06T07:23:37.912Z,36.30
2018-02-06T07:26:06.240Z,35.50
2018-02-06T07:28:33.748Z,31.70
2018-02-06T07:31:01.307Z,39.53
2018-02-06T07:33:28.866Z,44.60
2018-02-06T07:35:56.426Z,33.10
2018-02-06T07:38:23.986Z,31.47
2018-02-06T07:40:51.428Z,40.83
2018-02-06T07:43:18.949Z,35.60
2018-02-06T07:45:46.392Z,31.93
2018-02-06T07:48:13.963Z,31.60
2018-02-06T07:50:41.580Z,42.77
2018-02-06T07:53:09.138Z,33.20
2018-02-06T07:55:36.696Z,43.60
2018-02-06T07:58:04.259Z,42.87
2018-02-06T08:00:31.749Z,38.93
2018-02-06T08:02:59.272Z,35.80
2018-02-06T08:05:26.832Z,43.57
2018-02-06T08:07:54.393Z,44.67
2018-02-06T08:10:21.803Z,38.80
2018-02-06T08:12:49.306Z,37.40
2018-02-06T08:15:16.864Z,29.20
2018-02-06T08:17:44.455Z,52.87
2018-02-06T08:20:11.884Z,29.80
2018-02-06T08:22:39.441Z,33.30
2018-02-06T08:25:07.000Z,35.23
2018-02-06T08:27:34.563Z,36.10
2018-02-06T08:30:02.118Z,33.27
2018-02-06T08:32:29.678Z,29.70
2018-02-06T08:34:57.136Z,37.10
2018-02-06T08:37:24.592Z,36.00
2018-02-06T08:39:52.155Z,31.87
2018-02-06T08:42:19.730Z,31.53
2018-02-06T08:44:47.204Z,31.77
2018-02-06T08:47:14.728Z,36.67
2018-02-06T08:49:45.667Z,28.33
2018-02-06T08:52:13.160Z,29.87
2018-02-06T08:54:40.683Z,25.80
2018-02-06T08:57:08.241Z,31.57
2018-02-06T08:59:35.736Z,30.30
2018-02-06T09:02:03.258Z,27.53
2018-02-06T09:04:30.921Z,31.90
2018-02-06T09:06:58.479Z,30.53
2018-02-06T09:09:26.039Z,27.20
2018-02-06T09:11:53.598Z,32.30
2018-02-06T09:14:21.158Z,24.70
2018-02-06T09:16:48.654Z,28.37
2018-02-06T09:19:16.174Z,28.30
2018-02-06T09:21:43.607Z,25.37
2018-02-06T09:24:11.136Z,29.07
2018-02-06T09:26:38.570Z,28.20
2018-02-06T09:29:06.041Z,20.80
2018-02-06T09:31:33.496Z,28.80
2018-02-06T09:34:00.952Z,27.33
2018-02-06T09:36:28.388Z,25.63
2018-02-06T09:38:55.933Z,24.20
2018-02-06T09:41:23.390Z,20.50
2018-02-06T09:43:50.950Z,25.23
2018-02-06T09:46:18.509Z,21.50
2018-02-06T09:48:46.047Z,19.43
2018-02-06T09:51:13.525Z,20.57
2018-02-06T09:53:41.085Z,30.57
2018-02-06T09:56:08.580Z,20.53
2018-02-06T09:58:35.978Z,19.37
2018-02-06T10:01:03.558Z,23.70
2018-02-06T10:03:31.119Z,22.10
2018-02-06T10:05:58.677Z,20.83
2018-02-06T10:08:26.237Z,22.83
2018-02-06T10:10:53.736Z,18.33
2018-02-06T10:13:22.515Z,16.53
2018-02-06T10:15:50.144Z,24.00
2018-02-06T10:18:17.704Z,19.90
2018-02-06T10:20:45.195Z,19.10
2018-02-06T10:23:12.827Z,19.17
2018-02-06T10:25:40.219Z,17.80
2018-02-06T10:28:07.633Z,17.37
2018-02-06T10:30:35.194Z,17.87
2018-02-06T10:33:02.752Z,15.90
2018-02-06T10:35:30.311Z,15.80
2018-02-06T10:37:57.872Z,18.10
2018-02-06T10:40:25.432Z,14.90
2018-02-06T10:42:52.923Z,15.53
2018-02-06T10:45:20.447Z,14.70
2018-02-06T10:47:47.939Z,16.80
2018-02-06T10:50:15.396Z,14.40
2018-02-06T10:52:42.852Z,13.57
2018-02-06T10:55:10.377Z,23.33
2018-02-06T10:57:37.937Z,15.53
2018-02-06T11:00:05.599Z,16.90
2018-02-06T11:02:32.992Z,19.07
2018-02-06T11:05:00.561Z,14.30
2018-02-06T11:07:28.277Z,14.53
2018-02-06T11:09:55.735Z,14.47
2018-02-06T11:12:23.294Z,16.60
2018-02-06T11:14:50.753Z,11.80
2018-02-06T11:17:18.310Z,14.23
2018-02-06T11:19:45.799Z,10.67
2018-02-06T11:22:13.326Z,14.60
2018-02-06T11:24:40.886Z,12.00
2018-02-06T11:27:08.376Z,11.07
2018-02-06T11:29:35.903Z,10.63
2018-02-06T11:32:03.462Z,10.60
2018-02-06T11:34:30.953Z,9.50
2018-02-06T11:36:58.412Z,11.53
2018-02-06T11:39:25.936Z,13.10
2018-02-06T11:41:53.500Z,9.40
2018-02-06T11:44:20.952Z,10.73
2018-02-06T11:46:48.512Z,8.67
2018-02-06T11:49:16.071Z,11.70
2018-02-06T11:51:43.462Z,9.00
2018-02-06T11:54:10.985Z,8.27
2018-02-06T11:56:38.544Z,15.93
2018-02-06T11:59:05.939Z,8.37
2018-02-06T12:01:33.462Z,17.70
2018-02-06T12:04:01.018Z,14.40
2018-02-06T12:06:28.509Z,13.57
2018-02-06T12:08:56.037Z,14.57
2018-02-06T12:11:23.697Z,14.57
2018-02-06T12:13:51.187Z,16.70
2018-02-06T12:16:18.666Z,14.63
2018-02-06T12:18:46.085Z,16.30
2018-02-06T12:21:13.555Z,15.77
2018-02-06T12:23:41.015Z,11.00
2018-02-06T12:26:08.540Z,9.37
2018-02-06T12:28:35.930Z,13.10
2018-02-06T12:31:03.457Z,7.70
2018-02-06T12:33:30.913Z,7.93
2018-02-06T12:35:58.471Z,9.77
2018-02-06T12:38:26.031Z,7.23
2018-02-06T12:40:53.439Z,9.80
2018-02-06T12:43:21.047Z,10.80
2018-02-06T12:45:48.443Z,12.63
2018-02-06T12:48:16.064Z,10.40
2018-02-06T12:50:43.555Z,10.20
2018-02-06T12:53:11.080Z,11.53
2018-02-06T12:55:38.639Z,8.70
2018-02-06T12:58:06.128Z,10.57
2018-02-06T13:00:33.655Z,8.80
2018-02-06T13:03:01.214Z,10.90
2018-02-06T13:05:28.775Z,8.73
2018-02-06T13:07:56.265Z,6.70
2018-02-06T13:10:23.666Z,10.73
2018-02-06T13:12:51.248Z,8.80
2018-02-06T13:15:18.807Z,6.33
2018-02-06T13:17:46.367Z,8.07
2018-02-06T13:20:13.947Z,8.00
2018-02-06T13:22:41.415Z,9.70
2018-02-06T13:25:08.807Z,10.20
2018-02-06T13:27:36.400Z,6.87
2018-02-06T13:30:03.959Z,10.33
2018-02-06T13:32:31.521Z,8.40
2018-02-06T13:34:59.079Z,7.20
2018-02-06T13:37:26.536Z,7.13
2018-02-06T13:39:54.023Z,6.70
2018-02-06T13:42:21.407Z,10.00
2018-02-06T13:44:48.939Z,7.43
2018-02-06T13:47:16.336Z,9.00
2018-02-06T13:49:43.820Z,7.77
2018-02-06T13:52:11.311Z,12.20
2018-02-06T13:54:38.768Z,8.87
2018-02-06T13:57:06.155Z,7.13
2018-02-06T13:59:33.679Z,8.20
2018-02-06T14:02:01.413Z,14.20
2018-02-06T14:04:28.915Z,9.87
2018-02-06T14:06:56.360Z,11.70
2018-02-06T14:09:23.820Z,9.20
2018-02-06T14:11:51.276Z,12.00
2018-02-06T14:14:18.800Z,15.57
2018-02-06T14:16:46.360Z,14.00
2018-02-06T14:19:13.920Z,10.75
2018-02-06T14:21:41.479Z,11.55
2018-02-06T14:24:09.038Z,11.13
2018-02-06T14:26:36.597Z,9.85
2018-02-06T14:29:04.160Z,11.03
2018-02-06T14:31:31.615Z,10.70
2018-02-06T14:33:59.107Z,9.40
2018-02-06T14:36:26.563Z,11.67
2018-02-06T14:38:53.961Z,11.23
2018-02-06T14:41:21.420Z,10.20
2018-02-06T14:43:49.006Z,9.43
2018-02-06T14:46:16.561Z,12.37
2018-02-06T14:48:44.121Z,12.50
2018-02-06T14:51:11.613Z,13.33
2018-02-06T14:53:39.095Z,10.63
2018-02-06T14:56:06.696Z,12.73
2018-02-06T14:58:34.208Z,12.90
2018-02-06T15:01:01.713Z,11.40
2018-02-06T15:03:29.375Z,10.53
2018-02-06T15:05:57.549Z,11.10
2018-02-06T15:08:25.107Z,10.70
2018-02-06T15:10:52.666Z,12.33
2018-02-06T15:13:20.227Z,12.57
2018-02-06T15:15:47.823Z,12.53
2018-02-06T15:18:15.345Z,15.47
2018-02-06T15:20:42.910Z,13.03
2018-02-06T15:23:10.464Z,13.30
2018-02-06T15:25:38.024Z,13.70
2018-02-06T15:28:05.516Z,13.93
2018-02-06T15:30:33.041Z,13.57
2018-02-06T15:33:00.599Z,12.67
2018-02-06T15:35:28.159Z,14.13
2018-02-06T15:37:55.713Z,14.33
2018-02-06T15:40:23.278Z,14.23
2018-02-06T15:42:50.837Z,15.27
2018-02-06T15:45:18.397Z,16.60
2018-02-06T15:47:45.800Z,16.53
2018-02-06T15:50:13.348Z,15.53
2018-02-06T15:52:40.972Z,16.57
2018-02-06T15:55:08.376Z,16.93
2018-02-06T15:57:35.887Z,16.47
2018-02-06T16:00:03.448Z,15.10
2018-02-06T16:02:30.844Z,15.97
2018-02-06T16:04:58.363Z,15.37
2018-02-06T16:07:25.920Z,18.00
2018-02-06T16:09:53.411Z,16.50
2018-02-06T16:12:20.948Z,12.80
2018-02-06T16:14:48.497Z,16.47
2018-02-06T16:17:16.056Z,15.80
2018-02-06T16:19:43.614Z,19.13
2018-02-06T16:22:11.174Z,19.60
2018-02-06T16:24:38.631Z,15.50
2018-02-06T16:27:06.191Z,18.50
2018-02-06T16:29:33.750Z,19.07
2018-02-06T16:32:01.310Z,15.70
2018-02-06T16:34:28.869Z,16.37
2018-02-06T16:36:56.429Z,21.57
2018-02-06T16:39:23.987Z,17.10
2018-02-06T16:41:51.446Z,21.30
2018-02-06T16:44:18.852Z,22.20
2018-02-06T16:46:46.562Z,16.63
2018-02-06T16:49:14.056Z,23.87
2018-02-06T16:51:41.580Z,17.27
2018-02-06T16:54:09.073Z,22.07
2018-02-06T16:56:36.531Z,19.13
2018-02-06T16:59:03.984Z,20.23
2018-02-06T17:01:31.625Z,23.80
2018-02-06T17:03:59.214Z,23.93
2018-02-06T17:06:26.733Z,27.13
2018-02-06T17:08:54.292Z,21.83
2018-02-06T17:11:21.792Z,29.60
2018-02-06T17:13:49.308Z,25.10
2018-02-06T17:16:16.970Z,23.67
2018-02-06T17:18:44.530Z,19.23
2018-02-06T17:21:12.089Z,25.53
2018-02-06T17:23:39.648Z,24.60
2018-02-06T17:26:07.601Z,21.90
2018-02-06T17:28:35.176Z,23.33
2018-02-06T17:31:02.688Z,23.20
2018-02-06T17:33:30.193Z,23.57
2018-02-06T17:35:57.752Z,23.20
2018-02-06T17:38:25.313Z,24.20
2018-02-06T17:40:52.739Z,19.33
2018-02-06T17:43:20.228Z,21.90
2018-02-06T17:45:47.721Z,26.57
2018-02-06T17:48:15.243Z,22.20
2018-02-06T17:50:43.314Z,34.00
2018-02-06T17:53:10.874Z,23.43
2018-02-06T17:55:38.434Z,24.70
2018-02-06T17:58:06.028Z,26.20
2018-02-06T18:00:33.552Z,26.03
2018-02-06T18:03:01.157Z,27.00
2018-02-06T18:05:28.713Z,26.80
2018-02-06T18:07:56.174Z,27.67
2018-02-06T18:10:23.692Z,27.97
2018-02-06T18:12:51.287Z,33.40
2018-02-06T18:15:18.909Z,27.33
2018-02-06T18:17:46.403Z,28.27
2018-02-06T18:20:13.872Z,27.23
2018-02-06T18:22:41.384Z,30.30
2018-02-06T18:25:08.976Z,24.17
2018-02-06T18:27:36.501Z,24.97
2018-02-06T18:30:04.060Z,28.50
2018-02-06T18:32:31.485Z,27.33
2018-02-06T18:34:59.179Z,26.07
2018-02-06T18:37:26.739Z,27.53
2018-02-06T18:39:54.195Z,26.63
2018-02-06T18:42:21.756Z,33.23
2018-02-06T18:44:49.315Z,28.20
2018-02-06T18:47:16.875Z,31.53
2018-02-06T18:49:44.434Z,33.70
2018-02-06T18:52:11.882Z,24.07
2018-02-06T18:54:39.295Z,27.37
2018-02-06T18:57:06.719Z,25.07
2018-02-06T18:59:34.268Z,28.43
2018-02-06T19:02:01.821Z,23.67
2018-02-06T19:04:29.381Z,26.80
2018-02-06T19:06:56.846Z,26.20
2018-02-06T19:09:24.316Z,26.03
2018-02-06T19:11:51.854Z,28.03
2018-02-06T19:14:19.312Z,25.50
2018-02-06T19:16:46.805Z,20.40
2018-02-06T19:19:14.250Z,23.03
2018-02-06T19:21:41.787Z,24.20
2018-02-06T19:24:09.278Z,25.00
2018-02-06T19:26:37.005Z,18.70
2018-02-06T19:29:04.612Z,19.67
2018-02-06T19:31:32.548Z,21.27
2018-02-06T19:34:00.015Z,23.43
2018-02-06T19:36:27.445Z,20.77
2018-02-06T19:38:55.008Z,20.53
2018-02-06T19:41:22.457Z,20.63
2018-02-06T19:43:49.885Z,22.87
2018-02-06T19:46:17.336Z,24.50
2018-02-06T19:48:44.763Z,20.63
2018-02-06T19:51:12.221Z,23.50
2018-02-06T19:53:39.675Z,22.27
2018-02-06T19:56:07.116Z,23.57
2018-02-06T19:58:34.608Z,24.03
2018-02-06T20:01:02.224Z,22.70
2018-02-06T20:03:29.783Z,22.80
2018-02-06T20:05:57.277Z,22.63
2018-02-06T20:08:24.692Z,24.10
2018-02-06T20:10:52.259Z,25.23
2018-02-06T20:13:19.815Z,25.60
2018-02-06T20:15:47.308Z,22.80
2018-02-06T20:18:14.831Z,24.03
2018-02-06T20:20:42.391Z,22.40
2018-02-06T20:23:09.954Z,28.33
2018-02-06T20:25:37.510Z,23.20
2018-02-06T20:28:05.173Z,21.37
2018-02-06T20:30:32.666Z,25.37
2018-02-06T20:33:00.188Z,25.73
2018-02-06T20:35:27.646Z,23.83
2018-02-06T20:37:55.205Z,25.40
2018-02-06T20:40:22.765Z,24.53
2018-02-06T20:42:50.324Z,25.90
2018-02-06T20:45:17.986Z,22.37
2018-02-06T20:47:45.545Z,22.77
2018-02-06T20:50:13.105Z,29.10
2018-02-06T20:52:40.524Z,23.03
2018-02-06T20:55:07.953Z,23.87
2018-02-06T20:57:35.478Z,20.17
2018-02-06T21:00:03.077Z,18.63
2018-02-06T21:02:30.512Z,21.87
2018-02-06T21:04:58.051Z,23.23
2018-02-06T21:07:25.547Z,25.10
2018-02-06T21:09:52.966Z,23.57
2018-02-06T21:12:20.525Z,28.00
2018-02-06T21:14:48.084Z,21.83
2018-02-06T21:17:15.505Z,27.90
2018-02-06T21:19:43.101Z,25.93
2018-02-06T21:22:10.596Z,28.47
2018-02-06T21:24:38.117Z,30.97
2018-02-06T21:27:05.678Z,28.17
2018-02-06T21:29:33.237Z,29.90
2018-02-06T21:32:00.729Z,34.50
2018-02-06T21:34:28.253Z,25.80
2018-02-06T21:36:55.811Z,21.70
2018-02-06T21:39:23.371Z,24.43
2018-02-06T21:41:51.033Z,28.30
2018-02-06T21:44:18.595Z,28.47
2018-02-06T21:46:46.152Z,24.93
2018-02-06T21:49:13.711Z,25.90
2018-02-06T21:51:41.278Z,29.07
2018-02-06T21:54:08.756Z,33.50
2018-02-06T21:56:36.260Z,32.97
2018-02-06T21:59:03.744Z,28.53
2018-02-06T22:01:31.303Z,31.07
2018-02-06T22:03:58.796Z,27.57
2018-02-06T22:06:26.320Z,33.83
2018-02-06T22:08:53.884Z,32.73
2018-02-06T22:11:21.438Z,45.57
2018-02-06T22:13:48.999Z,29.90
2018-02-06T22:16:16.558Z,37.53
2018-02-06T22:18:44.121Z,34.13
2018-02-06T22:21:11.620Z,38.30
2018-02-06T22:23:39.068Z,36.77
2018-02-06T22:26:06.523Z,37.57
2018-02-06T22:28:34.151Z,34.67
2018-02-06T22:31:01.711Z,30.97
2018-02-06T22:33:29.269Z,34.50
2018-02-06T22:35:56.828Z,34.27
2018-02-06T22:38:24.285Z,35.80
2018-02-06T22:40:51.845Z,37.67
2018-02-06T22:43:19.403Z,33.77
2018-02-06T22:45:46.964Z,31.87
2018-02-06T22:48:14.523Z,36.73
2018-02-06T22:50:42.082Z,42.50
2018-02-06T22:53:09.641Z,42.93
2018-02-06T22:55:53.292Z,43.53
2018-02-06T22:58:20.941Z,42.17
2018-02-06T23:00:48.500Z,44.27
2018-02-06T23:03:15.940Z,40.10
2018-02-06T23:05:43.516Z,43.73
2018-02-06T23:08:11.080Z,40.20
2018-02-06T23:10:38.637Z,44.00
2018-02-06T23:13:06.195Z,35.97
2018-02-06T23:15:33.755Z,40.17
2018-02-06T23:18:01.415Z,39.37
2018-02-06T23:20:28.873Z,44.10
2018-02-06T23:22:56.367Z,48.07
2018-02-06T23:25:23.889Z,48.57
2018-02-06T23:27:51.449Z,48.67
2018-02-06T23:30:18.944Z,47.60
2018-02-06T23:32:46.356Z,45.63
2018-02-06T23:35:13.821Z,45.50
2018-02-06T23:37:41.481Z,43.67
2018-02-06T23:40:09.041Z,49.03
2018-02-06T23:42:36.600Z,47.17
2018-02-06T23:45:04.263Z,43.23
2018-02-06T23:47:31.756Z,46.90
2018-02-06T23:49:59.279Z,44.60
2018-02-06T23:52:26.838Z,52.60
2018-02-06T23:54:54.296Z,52.07
2018-02-06T23:57:21.752Z,41.60
2018-02-06T23:59:49.313Z,43.00
